Time;durP1;ratioP1;P1;durP2;ratioP2;P2;SDS_P1;SDS_P2;PMS_P1;PMS_P2;Temp;Humidity;BMP_temperature;BMP_pressure;BME280_temperature;BME280_humidity;BME280_pressure;Samples;Min_cycle;Max_cycle;Signal;HPM_P1;HPM_P2
2021/05/06 00:02:29;;;;;;;9.35;1.80;;;7.30;67.60;;;;;;3582977;40;20044;-66
2021/05/06 00:29:59;;;;;;;8.48;1.55;;;7.10;68.50;;;;;;3589950;40;20032;-64
2021/05/06 00:32:27;;;;;;;8.25;1.23;;;7.10;68.70;;;;;;3587206;40;20144;-65
2021/05/06 00:34:53;;;;;;;8.73;1.45;;;7.10;68.80;;;;;;3586549;40;20319;-66
2021/05/06 00:37:19;;;;;;;6.28;2.92;;;7.10;68.30;;;;;;3583904;39;20020;-65
2021/05/06 00:39:56;;;;;;;7.38;1.33;;;7.10;68.10;;;;;;3583097;40;20157;-65
2021/05/06 00:59:00;;;;;;;7.28;1.83;;;7.00;67.20;;;;;;3587462;40;19947;-65
2021/05/06 01:06:42;;;;;;;6.65;1.73;;;7.00;67.00;;;;;;3583041;40;20038;-66
2021/05/06 01:09:10;;;;;;;9.38;2.05;;;7.00;67.60;;;;;;3588181;40;20043;-65
2021/05/06 01:11:41;;;;;;;6.70;2.15;;;7.00;67.90;;;;;;3586904;40;20881;-65
2021/05/06 01:14:09;;;;;;;4.97;2.33;;;6.90;68.40;;;;;;3588796;40;20390;-65
2021/05/06 01:16:35;;;;;;;10.13;1.35;;;6.90;68.70;;;;;;3588141;39;20058;-65
2021/05/06 01:19:01;;;;;;;6.82;1.73;;;6.90;68.60;;;;;;3582309;40;20041;-65
2021/05/06 01:21:26;;;;;;;10.25;2.35;;;6.90;68.90;;;;;;3582733;40;20036;-65
2021/05/06 01:23:53;;;;;;;3.33;1.20;;;6.90;69.10;;;;;;3586634;39;21020;-65
2021/05/06 01:26:49;;;;;;;6.47;1.63;;;6.90;68.40;;;;;;3587061;40;20514;-66
2021/05/06 01:29:13;;;;;;;4.93;1.60;;;6.90;68.40;;;;;;3582831;40;20039;-65
2021/05/06 01:31:44;;;;;;;7.93;1.33;;;6.80;68.80;;;;;;3589264;40;20036;-66
2021/05/06 01:34:18;;;;;;;12.32;1.73;;;6.80;68.70;;;;;;3587093;40;20519;-65
2021/05/06 01:36:49;;;;;;;6.30;1.50;;;6.80;68.90;;;;;;3587404;40;20685;-65
2021/05/06 01:44:15;;;;;;;6.90;1.45;;;6.80;69.40;;;;;;3581096;40;20319;-65
2021/05/06 01:47:05;;;;;;;9.00;1.90;;;6.80;69.70;;;;;;3584864;40;20037;-64
2021/05/06 01:57:48;;;;;;;3.75;1.60;;;6.80;70.70;;;;;;3589550;40;20464;-65
2021/05/06 02:00:22;;;;;;;8.85;2.03;;;6.80;70.60;;;;;;3586009;40;20032;-65
2021/05/06 02:02:53;;;;;;;11.15;2.10;;;6.80;70.50;;;;;;3583791;40;20047;-60
2021/05/06 02:05:24;;;;;;;8.88;1.92;;;6.70;71.10;;;;;;3588796;40;20032;-65
2021/05/06 02:07:51;;;;;;;7.15;1.75;;;6.70;70.90;;;;;;3581011;40;20045;-64
2021/05/06 02:10:25;;;;;;;7.00;1.90;;;6.60;71.40;;;;;;3581118;40;20044;-65
2021/05/06 02:12:51;;;;;;;4.22;1.65;;;6.60;71.80;;;;;;3583428;40;20044;-66
2021/05/06 02:15:24;;;;;;;5.85;1.63;;;6.60;71.80;;;;;;3587888;39;20025;-65
2021/05/06 02:17:50;;;;;;;8.15;2.65;;;6.60;71.40;;;;;;3585565;39;20025;-65
2021/05/06 02:20:17;;;;;;;10.20;2.47;;;6.60;71.20;;;;;;3583402;40;20021;-65
2021/05/06 02:22:47;;;;;;;12.55;3.63;;;6.50;71.20;;;;;;3582390;40;20041;-65
2021/05/06 02:25:13;;;;;;;5.55;2.75;;;6.50;71.40;;;;;;3584440;40;20589;-65
2021/05/06 02:27:39;;;;;;;5.70;2.00;;;6.50;71.10;;;;;;3587190;39;20096;-66
2021/05/06 02:30:05;;;;;;;4.93;1.73;;;6.50;71.00;;;;;;3589648;40;20043;-66
2021/05/06 02:32:31;;;;;;;7.57;2.40;;;6.50;70.70;;;;;;3586687;39;20099;-65
2021/05/06 02:34:58;;;;;;;5.13;1.77;;;6.50;70.90;;;;;;3589530;40;20680;-65
2021/05/06 02:37:24;;;;;;;12.20;2.45;;;6.50;70.80;;;;;;3585197;40;20037;-65
2021/05/06 02:39:50;;;;;;;6.57;1.55;;;6.50;70.80;;;;;;3586471;40;20060;-65
2021/05/06 02:42:16;;;;;;;11.00;2.03;;;6.50;70.60;;;;;;3585637;40;20392;-65
2021/05/06 02:44:42;;;;;;;6.45;1.55;;;6.60;70.20;;;;;;3590467;39;20029;-65
2021/05/06 02:47:08;;;;;;;7.63;1.52;;;6.60;70.30;;;;;;3589538;40;20031;-65
2021/05/06 02:49:35;;;;;;;9.77;1.55;;;6.60;70.30;;;;;;3586054;40;20285;-65
2021/05/06 02:52:08;;;;;;;5.50;1.52;;;6.60;70.60;;;;;;3585888;39;20126;-65
2021/05/06 02:54:39;;;;;;;8.18;1.70;;;6.60;71.00;;;;;;3587819;40;20029;-65
2021/05/06 02:57:15;;;;;;;7.00;2.92;;;6.50;71.20;;;;;;3589359;39;20028;-65
2021/05/06 03:02:49;;;;;;;7.57;1.90;;;6.50;71.40;;;;;;3585426;40;20100;-65
2021/05/06 03:05:16;;;;;;;8.50;2.22;;;6.40;71.60;;;;;;3586791;40;20020;-65
2021/05/06 03:07:46;;;;;;;8.45;2.00;;;6.40;71.30;;;;;;3576277;40;20032;-66
2021/05/06 03:10:40;;;;;;;8.38;1.48;;;6.40;71.50;;;;;;3591089;40;20332;-65
2021/05/06 03:23:23;;;;;;;2.60;1.48;;;6.30;70.60;;;;;;3589722;40;20044;-65
2021/05/06 03:25:49;;;;;;;7.15;1.40;;;6.30;70.40;;;;;;3588823;39;20025;-65
2021/05/06 03:28:23;;;;;;;6.57;1.52;;;6.30;70.70;;;;;;3584981;40;20036;-65
2021/05/06 03:41:52;;;;;;;6.25;1.88;;;6.20;69.70;;;;;;3585364;40;20029;-65
2021/05/06 04:15:03;;;;;;;8.23;1.80;;;6.30;69.60;;;;;;3584698;40;20029;-64
2021/05/06 04:30:54;;;;;;;5.95;1.55;;;6.40;68.00;;;;;;3585343;40;20025;-60
2021/05/06 04:36:18;;;;;;;9.48;2.30;;;6.50;68.40;;;;;;3584399;40;20024;-60
2021/05/06 04:38:44;;;;;;;6.93;1.85;;;6.50;68.90;;;;;;3588442;40;20025;-61
2021/05/06 04:44:56;;;;;;;8.63;1.73;;;6.70;67.50;;;;;;3585952;40;20033;-61
2021/05/06 04:50:19;;;;;;;6.15;1.77;;;6.70;68.40;;;;;;3588434;40;20077;-63
2021/05/06 05:05:54;;;;;;;8.88;2.20;;;7.30;67.00;;;;;;3583997;40;20041;-60
2021/05/06 05:08:20;;;;;;;7.60;2.53;;;7.60;65.80;;;;;;3586759;40;20035;-60
2021/05/06 05:11:04;;;;;;;4.40;2.10;;;7.90;64.90;;;;;;3585763;40;20021;-63
2021/05/06 05:13:41;;;;;;;10.90;2.38;;;8.20;63.30;;;;;;3588551;40;20024;-60
2021/05/06 05:27:03;;;;;;;12.13;2.72;;;10.20;57.10;;;;;;3586949;40;20035;-60
2021/05/06 05:29:29;;;;;;;6.80;1.73;;;10.30;55.60;;;;;;3586287;40;20025;-60
2021/05/06 05:31:56;;;;;;;9.00;2.10;;;10.50;56.80;;;;;;3582710;40;20056;-61
2021/05/06 05:36:50;;;;;;;9.18;2.03;;;11.50;54.00;;;;;;3587180;40;20896;-61
2021/05/06 05:39:42;;;;;;;5.80;2.15;;;11.80;53.00;;;;;;3587316;40;20039;-61
2021/05/06 05:42:22;;;;;;;12.23;2.22;;;12.30;52.00;;;;;;3583489;40;20028;-61
2021/05/06 05:55:08;;;;;;;5.53;1.92;;;11.70;52.90;;;;;;3587134;40;20324;-61
2021/05/06 05:57:33;;;;;;;6.30;1.70;;;11.50;52.40;;;;;;3582881;40;20029;-62
2021/05/06 05:59:59;;;;;;;7.18;1.73;;;11.60;53.00;;;;;;3585957;40;20036;-61
2021/05/06 06:02:25;;;;;;;11.27;3.13;;;11.80;52.80;;;;;;3586923;40;20036;-61
2021/05/06 06:04:50;;;;;;;11.10;3.28;;;12.20;51.90;;;;;;3584010;40;20064;-62
2021/05/06 06:07:16;;;;;;;5.25;1.52;;;12.70;51.20;;;;;;3589957;40;20035;-61
2021/05/06 06:09:42;;;;;;;7.88;1.85;;;13.00;50.40;;;;;;3584455;40;20640;-60
2021/05/06 06:12:08;;;;;;;8.77;2.53;;;13.40;48.10;;;;;;3586836;40;20036;-61
2021/05/06 06:14:39;;;;;;;9.40;2.45;;;13.50;47.80;;;;;;3587243;40;20844;-63
2021/05/06 06:17:05;;;;;;;5.68;2.08;;;13.50;48.00;;;;;;3588983;40;20024;-62
2021/05/06 06:19:35;;;;;;;9.32;2.08;;;13.60;47.50;;;;;;3590414;40;20027;-61
2021/05/06 06:22:08;;;;;;;6.15;1.88;;;13.50;46.80;;;;;;3587105;40;20413;-61
2021/05/06 06:24:33;;;;;;;6.65;1.77;;;13.50;47.60;;;;;;3586151;40;20036;-61
2021/05/06 06:26:59;;;;;;;5.90;1.73;;;13.90;47.20;;;;;;3585240;40;20028;-62
2021/05/06 06:29:33;;;;;;;8.32;2.45;;;14.10;46.40;;;;;;3585903;40;20471;-61
2021/05/06 06:32:01;;;;;;;5.13;1.63;;;13.80;46.10;;;;;;3585074;40;20039;-61
2021/05/06 06:34:26;;;;;;;7.57;2.13;;;13.40;47.40;;;;;;3590195;40;20029;-61
2021/05/06 06:36:52;;;;;;;7.15;2.00;;;13.30;47.20;;;;;;3587279;40;20101;-62
2021/05/06 06:39:18;;;;;;;5.15;1.50;;;13.50;47.60;;;;;;3588310;39;20039;-61
2021/05/06 06:41:44;;;;;;;8.90;2.00;;;14.00;48.30;;;;;;3584591;40;20025;-63
2021/05/06 06:44:13;;;;;;;4.05;1.50;;;14.50;47.10;;;;;;3589865;39;20020;-61
2021/05/06 06:46:39;;;;;;;3.72;1.45;;;14.80;46.30;;;;;;3586080;40;20029;-61
2021/05/06 06:49:05;;;;;;;4.85;1.80;;;14.90;44.80;;;;;;3587041;40;20037;-63
2021/05/06 06:51:31;;;;;;;5.88;1.65;;;14.90;44.70;;;;;;3584217;40;20405;-60
2021/05/06 06:53:57;;;;;;;6.35;1.80;;;14.70;45.20;;;;;;3580644;40;20024;-60
2021/05/06 06:56:23;;;;;;;7.45;1.58;;;14.40;45.10;;;;;;3588921;40;20036;-61
2021/05/06 06:58:51;;;;;;;7.88;1.70;;;14.00;46.70;;;;;;3588125;40;20118;-60
2021/05/06 07:01:17;;;;;;;4.22;1.92;;;13.90;47.40;;;;;;3587183;39;20101;-60
2021/05/06 07:03:43;;;;;;;6.32;1.80;;;13.80;47.00;;;;;;3586408;40;20484;-62
2021/05/06 07:06:09;;;;;;;4.68;1.45;;;13.80;46.90;;;;;;3585786;40;20036;-61
2021/05/06 07:08:38;;;;;;;4.13;1.65;;;13.80;46.10;;;;;;3591275;39;20469;-62
2021/05/06 07:11:05;;;;;;;5.55;1.60;;;13.80;45.80;;;;;;3585426;39;20050;-60
2021/05/06 07:13:31;;;;;;;4.38;1.35;;;13.80;46.30;;;;;;3584600;40;20097;-60
2021/05/06 07:16:00;;;;;;;4.50;1.60;;;13.80;46.00;;;;;;3584354;40;20029;-61
2021/05/06 07:18:31;;;;;;;5.15;1.50;;;13.90;45.70;;;;;;3587752;40;20029;-60
2021/05/06 07:20:57;;;;;;;7.15;1.55;;;14.10;46.80;;;;;;3585593;39;20837;-60
2021/05/06 07:23:24;;;;;;;4.07;1.48;;;14.20;46.60;;;;;;3586441;40;20056;-61
2021/05/06 07:25:52;;;;;;;9.48;1.88;;;14.50;45.90;;;;;;3587506;40;20038;-59
2021/05/06 07:28:28;;;;;;;3.67;1.50;;;14.90;43.80;;;;;;3588274;40;20032;-61
2021/05/06 07:30:54;;;;;;;;;;;15.10;42.90;;;;;;3585020;40;20101;-60
2021/05/06 07:33:20;;;;;;;4.50;1.60;;;15.20;43.10;;;;;;3584066;40;19971;-60
2021/05/06 07:35:46;;;;;;;7.82;1.73;;;15.50;43.50;;;;;;3584987;39;20131;-60
2021/05/06 07:38:12;;;;;;;8.50;2.25;;;15.80;41.90;;;;;;3584728;39;20037;-60
2021/05/06 07:40:40;;;;;;;8.55;1.90;;;16.00;41.60;;;;;;3584785;39;20064;-60
2021/05/06 07:43:06;;;;;;;6.55;1.35;;;15.70;40.20;;;;;;3584345;40;20020;-60
2021/05/06 07:45:33;;;;;;;5.75;1.50;;;15.40;42.40;;;;;;3583268;40;20030;-60
2021/05/06 07:47:59;;;;;;;4.38;2.03;;;15.40;42.70;;;;;;3580439;40;20121;-61
2021/05/06 07:50:26;;;;;;;6.80;1.40;;;15.40;43.50;;;;;;3585565;40;20025;-61
2021/05/06 07:52:54;;;;;;;4.38;1.50;;;15.30;42.30;;;;;;3584908;40;20124;-60
2021/05/06 07:55:21;;;;;;;7.60;1.90;;;15.20;42.60;;;;;;3587058;39;20064;-60
2021/05/06 07:57:47;;;;;;;6.50;1.75;;;15.00;42.50;;;;;;3588916;40;20020;-61
2021/05/06 08:00:18;;;;;;;4.63;1.23;;;15.20;43.20;;;;;;3586400;40;20133;-60
2021/05/06 08:02:47;;;;;;;9.13;1.90;;;15.30;42.40;;;;;;3585791;40;20046;-61
2021/05/06 08:05:13;;;;;;;3.38;1.80;;;15.50;43.40;;;;;;3585258;39;20032;-61
2021/05/06 08:07:39;;;;;;;3.05;1.60;;;15.50;40.80;;;;;;3585963;39;20044;-61
2021/05/06 08:10:06;;;;;;;7.70;2.10;;;15.40;41.10;;;;;;3583523;40;20576;-61
2021/05/06 08:12:31;;;;;;;4.88;1.65;;;15.20;41.50;;;;;;3581985;39;20037;-61
2021/05/06 08:14:57;;;;;;;5.90;1.80;;;15.00;41.30;;;;;;3583801;40;20051;-61
2021/05/06 08:17:24;;;;;;;2.92;1.23;;;15.00;41.40;;;;;;3585602;40;20133;-61
2021/05/06 08:19:50;;;;;;;6.50;1.58;;;15.00;42.80;;;;;;3587096;40;20031;-61
2021/05/06 08:22:16;;;;;;;4.68;1.58;;;15.20;44.20;;;;;;3587897;40;20024;-61
2021/05/06 08:24:44;;;;;;;5.45;1.80;;;15.50;41.50;;;;;;3582022;40;20137;-61
2021/05/06 08:27:09;;;;;;;4.35;1.92;;;15.80;42.50;;;;;;3585320;40;20431;-61
2021/05/06 08:29:35;;;;;;;8.23;2.53;;;16.10;43.50;;;;;;3586315;40;20024;-61
2021/05/06 08:32:01;;;;;;;6.57;1.83;;;16.50;41.10;;;;;;3584565;40;20032;-61
2021/05/06 08:34:27;;;;;;;5.82;2.20;;;16.90;41.00;;;;;;3581842;40;20137;-61
2021/05/06 08:36:52;;;;;;;4.80;1.60;;;16.90;39.00;;;;;;3582190;40;20102;-62
2021/05/06 08:39:18;;;;;;;4.75;1.90;;;16.70;40.40;;;;;;3584952;40;20417;-61
2021/05/06 08:41:44;;;;;;;7.38;2.10;;;16.60;39.30;;;;;;3585660;40;20043;-66
2021/05/06 08:44:13;;;;;;;4.68;1.75;;;16.40;40.00;;;;;;3585875;40;20036;-65
2021/05/06 08:46:50;;;;;;;7.72;1.95;;;16.30;41.70;;;;;;3585153;40;20021;-65
2021/05/06 08:49:16;;;;;;;4.55;1.80;;;16.30;40.50;;;;;;3590194;40;20032;-65
2021/05/06 08:51:43;;;;;;;5.07;1.83;;;16.20;40.50;;;;;;3583480;39;20025;-64
2021/05/06 08:54:09;;;;;;;8.55;2.20;;;16.00;39.90;;;;;;3583556;40;20032;-65
2021/05/06 08:56:35;;;;;;;9.63;2.20;;;15.80;41.40;;;;;;3584274;40;20250;-65
2021/05/06 08:59:00;;;;;;;5.53;2.72;;;15.60;41.60;;;;;;3588288;39;20771;-66
2021/05/06 09:01:26;;;;;;;6.45;2.83;;;15.50;40.50;;;;;;3583556;40;20040;-65
2021/05/06 09:03:52;;;;;;;9.75;2.90;;;15.50;41.50;;;;;;3589275;40;20032;-61
2021/05/06 09:06:21;;;;;;;5.63;3.03;;;14.60;42.70;;;;;;3588753;40;20061;-61
2021/05/06 09:08:53;;;;;;;9.70;3.70;;;14.50;45.60;;;;;;3587269;40;20068;-61
2021/05/06 09:11:29;;;;;;;6.40;3.38;;;14.80;45.90;;;;;;3584062;40;20068;-61
2021/05/06 09:14:13;;;;;;;;;;;15.20;45.00;;;;;;3584863;40;20031;-61
2021/05/06 09:16:41;;;;;;;7.47;3.20;;;15.50;44.00;;;;;;3585121;40;19931;-61
2021/05/06 09:19:09;;;;;;;6.65;3.20;;;15.80;44.10;;;;;;3587937;40;20035;-61
2021/05/06 09:21:37;;;;;;;5.00;2.90;;;15.90;42.20;;;;;;3586462;40;20126;-61
2021/05/06 09:24:07;;;;;;;5.07;3.08;;;15.90;43.30;;;;;;3586001;39;20068;-61
2021/05/06 09:26:34;;;;;;;4.28;2.70;;;15.80;42.50;;;;;;3583968;40;20098;-62
2021/05/06 09:29:03;;;;;;;5.95;3.40;;;15.70;43.00;;;;;;3583139;40;20048;-61
2021/05/06 09:31:32;;;;;;;6.20;3.08;;;15.50;44.80;;;;;;3585681;40;20032;-62
2021/05/06 09:33:57;;;;;;;7.28;3.17;;;15.40;44.00;;;;;;3585496;40;20036;-61
2021/05/06 09:36:24;;;;;;;9.27;2.90;;;15.00;43.60;;;;;;3588405;40;20635;-61
2021/05/06 09:38:56;;;;;;;6.32;3.10;;;14.80;44.40;;;;;;3584681;40;20033;-61
2021/05/06 09:41:28;;;;;;;6.85;3.28;;;14.60;45.40;;;;;;3589281;39;20036;-61
2021/05/06 09:43:54;;;;;;;8.48;3.78;;;14.60;46.40;;;;;;3586024;40;20806;-61
2021/05/06 09:46:42;;;;;;;9.05;3.95;;;14.70;47.10;;;;;;3586509;40;20628;-61
2021/05/06 09:49:15;;;;;;;5.60;3.60;;;14.80;47.70;;;;;;3586166;40;20064;-61
2021/05/06 09:51:45;;;;;;;8.90;3.88;;;14.60;47.40;;;;;;3587922;40;20032;-61
2021/05/06 09:54:18;;;;;;;5.88;3.90;;;14.30;47.70;;;;;;3587526;40;20037;-61
2021/05/06 09:56:45;;;;;;;7.05;3.95;;;14.10;49.00;;;;;;3584968;40;20040;-61
2021/05/06 09:59:21;;;;;;;7.47;4.50;;;13.90;50.90;;;;;;3585901;40;20185;-61
2021/05/06 10:01:47;;;;;;;7.68;5.07;;;13.70;52.40;;;;;;3584799;40;20047;-61
2021/05/06 10:04:21;;;;;;;9.82;4.45;;;13.40;54.30;;;;;;3586722;39;20605;-62
2021/05/06 10:07:07;;;;;;;9.88;5.10;;;13.10;57.60;;;;;;3585154;39;20027;-61
2021/05/06 10:09:34;;;;;;;8.90;5.47;;;12.70;59.70;;;;;;3585157;40;20034;-60
2021/05/06 10:12:01;;;;;;;7.57;5.55;;;12.40;61.70;;;;;;3587418;40;20045;-60
2021/05/06 10:14:27;;;;;;;9.48;5.70;;;12.00;62.90;;;;;;3584366;39;20349;-62
2021/05/06 10:16:52;;;;;;;7.10;6.10;;;11.70;63.90;;;;;;3590405;40;20121;-61
2021/05/06 10:19:19;;;;;;;8.63;6.75;;;11.40;66.50;;;;;;3586825;40;20024;-61
2021/05/06 10:21:45;;;;;;;10.07;6.45;;;11.20;67.20;;;;;;3584465;40;20032;-61
2021/05/06 10:24:11;;;;;;;11.10;6.85;;;10.80;69.10;;;;;;3585150;40;20080;-61
2021/05/06 10:26:39;;;;;;;8.43;6.10;;;10.50;71.20;;;;;;3586172;40;20020;-61
2021/05/06 10:29:04;;;;;;;8.60;6.63;;;10.40;72.40;;;;;;3589635;40;20055;-64
2021/05/06 10:31:31;;;;;;;10.10;6.03;;;10.40;74.20;;;;;;3586063;39;20465;-61
2021/05/06 10:33:57;;;;;;;10.18;7.43;;;10.50;72.40;;;;;;3583767;40;20076;-61
2021/05/06 10:36:23;;;;;;;9.20;6.63;;;10.70;73.80;;;;;;3585948;39;20041;-61
2021/05/06 10:38:49;;;;;;;9.95;6.65;;;11.40;72.10;;;;;;3584450;39;20035;-62
2021/05/06 10:41:34;;;;;;;7.88;5.85;;;11.90;71.30;;;;;;3587067;40;20028;-61
2021/05/06 10:44:02;;;;;;;7.43;5.80;;;12.20;68.50;;;;;;3586847;40;20487;-67
2021/05/06 10:47:14;;;;;;;7.90;6.22;;;12.40;69.10;;;;;;3585607;40;20314;-66
2021/05/06 10:49:37;;;;;;;5.78;4.60;;;12.80;70.80;;;;;;3586527;40;20044;-66
2021/05/06 10:52:08;;;;;;;5.03;4.13;;;13.20;66.20;;;;;;3585380;40;20697;-66
2021/05/06 10:54:40;;;;;;;5.22;3.90;;;13.40;66.80;;;;;;3588110;40;20157;-67
2021/05/06 10:57:12;;;;;;;8.90;3.83;;;13.20;64.10;;;;;;3587142;40;20041;-66
2021/05/06 10:59:40;;;;;;;13.25;4.75;;;12.90;65.30;;;;;;3587377;40;20116;-67
2021/05/06 11:02:07;;;;;;;6.20;4.53;;;12.70;64.80;;;;;;3587410;40;20076;-66
2021/05/06 11:04:36;;;;;;;6.35;4.30;;;12.50;64.20;;;;;;3589382;40;20427;-67
2021/05/06 11:07:18;;;;;;;8.57;4.82;;;12.60;66.20;;;;;;3590041;39;20042;-67
2021/05/06 11:09:44;;;;;;;15.63;5.65;;;12.70;68.50;;;;;;3587651;40;20028;-68
2021/05/06 11:12:23;;;;;;;6.00;5.20;;;12.80;69.30;;;;;;3587576;39;20041;-66
2021/05/06 11:15:01;;;;;;;6.70;5.20;;;12.80;67.50;;;;;;3585661;39;20031;-66
2021/05/06 11:17:41;;;;;;;8.20;6.00;;;12.70;68.30;;;;;;3588041;40;20028;-66
2021/05/06 11:20:10;;;;;;;6.93;5.40;;;12.70;68.30;;;;;;3584688;40;20072;-67
2021/05/06 11:25:29;;;;;;;7.50;5.68;;;12.90;68.50;;;;;;3586684;40;20032;-61
2021/05/06 11:27:59;;;;;;;13.57;6.20;;;13.00;67.20;;;;;;3587917;40;20040;-61
2021/05/06 11:30:43;;;;;;;8.90;4.82;;;13.00;65.00;;;;;;3581803;40;20036;-61
2021/05/06 11:33:21;;;;;;;6.60;5.72;;;13.10;67.60;;;;;;3584974;39;20321;-61
2021/05/06 11:36:01;;;;;;;6.18;5.20;;;13.20;65.90;;;;;;3585251;40;20040;-61
2021/05/06 11:38:39;;;;;;;6.40;5.07;;;13.30;64.30;;;;;;3585997;40;20129;-61
2021/05/06 11:41:09;;;;;;;6.18;5.03;;;13.30;64.90;;;;;;3586300;40;20067;-61
2021/05/06 11:43:55;;;;;;;6.63;4.68;;;13.50;63.60;;;;;;3587249;40;20036;-61
2021/05/06 11:46:41;;;;;;;6.82;4.43;;;13.60;64.70;;;;;;3585152;40;20057;-67
2021/05/06 11:49:17;;;;;;;8.07;5.50;;;13.70;60.80;;;;;;3588238;40;20539;-66
2021/05/06 11:51:44;;;;;;;7.32;4.53;;;13.80;63.00;;;;;;3586256;40;20140;-66
2021/05/06 11:54:14;;;;;;;6.70;4.47;;;13.90;61.70;;;;;;3585280;39;20034;-66
2021/05/06 11:56:53;;;;;;;5.85;4.05;;;13.90;61.20;;;;;;3580782;40;20032;-66
2021/05/06 11:59:21;;;;;;;4.55;3.90;;;14.10;59.90;;;;;;3587811;39;20088;-67
2021/05/06 12:01:47;;;;;;;4.30;3.90;;;14.10;60.10;;;;;;3588299;39;20029;-66
2021/05/06 12:04:34;;;;;;;5.50;3.80;;;14.10;60.40;;;;;;3585775;39;20032;-66
2021/05/06 12:07:14;;;;;;;6.13;3.63;;;14.20;60.40;;;;;;3588990;40;20140;-67
2021/05/06 12:09:40;;;;;;;4.68;2.65;;;14.30;59.70;;;;;;3586349;40;20035;-66
2021/05/06 12:12:06;;;;;;;5.10;3.28;;;14.40;57.40;;;;;;3588583;40;20037;-66
2021/05/06 12:14:37;;;;;;;3.50;3.15;;;14.50;57.30;;;;;;3585478;40;20596;-67
2021/05/06 12:17:04;;;;;;;4.68;3.80;;;14.50;56.20;;;;;;3586653;40;20067;-66
2021/05/06 12:19:30;;;;;;;11.57;3.95;;;14.40;57.40;;;;;;3586505;39;20020;-67
2021/05/06 12:21:58;;;;;;;6.93;3.60;;;14.40;58.00;;;;;;3581673;40;20036;-67
2021/05/06 12:24:38;;;;;;;3.38;2.60;;;14.20;56.80;;;;;;3586947;40;20036;-66
2021/05/06 12:27:27;;;;;;;6.90;2.88;;;14.10;55.20;;;;;;3584901;39;20134;-65
2021/05/06 12:29:56;;;;;;;4.28;2.85;;;14.00;56.30;;;;;;3583917;40;20047;-65
2021/05/06 12:32:24;;;;;;;4.75;3.10;;;14.10;57.10;;;;;;3582848;40;20044;-66
2021/05/06 12:34:51;;;;;;;3.33;3.00;;;14.10;56.50;;;;;;3583615;40;20148;-65
2021/05/06 12:37:17;;;;;;;4.20;3.03;;;14.00;57.50;;;;;;3586901;39;20129;-67
2021/05/06 12:39:46;;;;;;;2.90;2.70;;;14.00;56.50;;;;;;3585444;40;20814;-65
2021/05/06 12:42:13;;;;;;;3.58;2.70;;;14.00;55.80;;;;;;3585468;39;20049;-66
2021/05/06 12:44:47;;;;;;;4.05;2.97;;;14.00;54.60;;;;;;3587817;40;20411;-65
2021/05/06 12:47:15;;;;;;;2.80;2.60;;;14.10;57.80;;;;;;3591977;39;20031;-66
2021/05/06 12:49:42;;;;;;;3.35;2.47;;;14.10;55.50;;;;;;3587028;40;20151;-65
2021/05/06 12:52:39;;;;;;;7.07;4.13;;;14.20;54.40;;;;;;3585897;40;20585;-66
2021/05/06 12:55:27;;;;;;;5.68;3.90;;;14.20;54.70;;;;;;3585743;40;20040;-66
2021/05/06 12:58:08;;;;;;;3.42;2.65;;;14.20;54.70;;;;;;3586818;40;20032;-65
2021/05/06 13:00:36;;;;;;;3.25;2.60;;;14.20;53.10;;;;;;3590303;40;20676;-65
2021/05/06 13:03:11;;;;;;;3.75;2.40;;;14.10;53.00;;;;;;3585247;40;20048;-66
2021/05/06 13:05:41;;;;;;;3.05;2.58;;;14.00;55.40;;;;;;3586419;39;20032;-66
2021/05/06 13:08:07;;;;;;;2.58;1.85;;;14.00;52.60;;;;;;3584835;40;20822;-67
2021/05/06 13:10:37;;;;;;;2.58;1.95;;;14.10;51.10;;;;;;3585613;40;20115;-65
2021/05/06 13:13:05;;;;;;;1.88;1.73;;;14.20;51.70;;;;;;3582226;39;20113;-70
2021/05/06 13:15:48;;;;;;;3.45;1.85;;;14.30;50.60;;;;;;3588153;40;20035;-67
2021/05/06 13:18:15;;;;;;;2.55;1.40;;;14.40;52.20;;;;;;3586352;40;20028;-66
2021/05/06 13:20:41;;;;;;;3.30;2.28;;;14.40;51.30;;;;;;3588016;40;20043;-66
2021/05/06 13:23:10;;;;;;;2.42;1.90;;;14.60;50.20;;;;;;3589723;40;20036;-67
2021/05/06 13:25:45;;;;;;;2.10;1.90;;;14.60;49.60;;;;;;3583191;40;20405;-67
2021/05/06 13:28:17;;;;;;;1.65;1.55;;;14.60;48.70;;;;;;3590288;39;20042;-67
2021/05/06 13:30:44;;;;;;;1.42;1.30;;;14.60;49.80;;;;;;3587394;40;20032;-67
2021/05/06 13:33:12;;;;;;;1.88;1.60;;;14.60;48.90;;;;;;3587115;40;20091;-66
2021/05/06 13:35:38;;;;;;;2.15;1.90;;;14.80;50.00;;;;;;3583649;40;20056;-66
2021/05/06 13:38:04;;;;;;;2.67;1.80;;;14.90;45.90;;;;;;3588512;40;20034;-66
2021/05/06 13:40:30;;;;;;;3.20;2.20;;;15.10;48.50;;;;;;3585731;39;20040;-68
2021/05/06 13:42:55;;;;;;;9.95;7.68;;;15.10;48.00;;;;;;3586854;40;20398;-67
2021/05/06 13:45:21;;;;;;;31.00;20.92;;;15.20;47.50;;;;;;3586922;40;20047;-67
2021/05/06 13:47:48;;;;;;;8.05;6.45;;;15.20;47.40;;;;;;3585199;40;20043;-66
2021/05/06 13:50:15;;;;;;;9.13;6.40;;;15.30;47.80;;;;;;3588773;40;20039;-66
2021/05/06 13:52:41;;;;;;;3.58;3.22;;;15.30;48.90;;;;;;3589956;39;20032;-67
2021/05/06 13:55:09;;;;;;;1.77;1.63;;;15.30;48.40;;;;;;3585396;39;20052;-67
2021/05/06 13:57:34;;;;;;;5.22;2.00;;;15.30;47.60;;;;;;3587536;40;20024;-67
2021/05/06 14:00:00;;;;;;;7.43;4.22;;;15.40;48.40;;;;;;3587566;39;20028;-67
2021/05/06 14:02:29;;;;;;;1.70;1.60;;;15.30;46.40;;;;;;3582447;40;20037;-67
2021/05/06 14:04:55;;;;;;;2.63;1.80;;;15.30;47.10;;;;;;3584752;40;20147;-67
2021/05/06 14:07:20;;;;;;;2.80;1.42;;;15.40;45.70;;;;;;3585024;40;20401;-67
2021/05/06 14:09:46;;;;;;;3.83;2.33;;;15.40;46.00;;;;;;3587035;40;20028;-67
2021/05/06 14:12:12;;;;;;;2.55;2.10;;;15.40;46.10;;;;;;3585887;40;20085;-66
2021/05/06 14:14:38;;;;;;;1.95;1.63;;;15.20;46.80;;;;;;3582574;40;20032;-67
2021/05/06 14:17:04;;;;;;;1.70;1.60;;;15.20;46.10;;;;;;3585211;40;20091;-67
2021/05/06 14:19:29;;;;;;;1.70;1.60;;;15.20;45.80;;;;;;3587315;40;20024;-66
2021/05/06 14:21:56;;;;;;;2.47;1.73;;;15.10;46.40;;;;;;3585500;40;20051;-66
2021/05/06 14:24:22;;;;;;;1.42;1.33;;;15.20;46.40;;;;;;3586789;40;20020;-67
2021/05/06 14:26:49;;;;;;;2.47;1.80;;;15.10;46.80;;;;;;3588811;40;20035;-67
2021/05/06 14:29:17;;;;;;;2.35;1.50;;;15.10;46.10;;;;;;3591624;39;20075;-67
2021/05/06 14:31:43;;;;;;;1.73;1.63;;;15.30;45.20;;;;;;3589357;39;20047;-67
2021/05/06 14:34:09;;;;;;;3.53;1.90;;;15.30;44.60;;;;;;3586188;40;20025;-67
2021/05/06 14:36:35;;;;;;;2.33;1.88;;;15.40;45.40;;;;;;3585992;39;20021;-66
2021/05/06 14:39:02;;;;;;;1.60;1.27;;;15.40;46.60;;;;;;3588317;40;20035;-64
2021/05/06 14:41:29;;;;;;;2.28;1.77;;;15.50;45.70;;;;;;3586264;40;20141;-66
2021/05/06 14:43:55;;;;;;;4.45;3.20;;;15.40;44.70;;;;;;3589917;39;20045;-67
2021/05/06 14:46:22;;;;;;;4.00;2.90;;;15.40;45.20;;;;;;3586834;40;20227;-67
2021/05/06 14:48:48;;;;;;;6.30;4.10;;;15.40;46.40;;;;;;3585407;40;20025;-67
2021/05/06 14:51:13;;;;;;;2.45;2.25;;;15.30;44.20;;;;;;3584318;39;20028;-68
2021/05/06 14:53:39;;;;;;;2.47;2.20;;;15.20;46.00;;;;;;3582997;40;20693;-67
2021/05/06 14:56:05;;;;;;;11.05;10.15;;;15.10;46.40;;;;;;3585429;40;20040;-68
2021/05/06 14:58:31;;;;;;;3.80;3.35;;;15.10;44.20;;;;;;3587822;40;20039;-67
2021/05/06 15:00:58;;;;;;;2.55;2.35;;;15.00;44.40;;;;;;3590067;39;20016;-67
2021/05/06 15:03:23;;;;;;;2.55;2.33;;;14.90;45.50;;;;;;3588320;40;20028;-67
2021/05/06 15:05:49;;;;;;;2.17;1.95;;;14.90;46.40;;;;;;3590199;40;20035;-68
2021/05/06 15:08:17;;;;;;;3.28;2.25;;;14.90;46.00;;;;;;3587304;39;20036;-67
2021/05/06 15:10:43;;;;;;;2.67;2.47;;;14.80;45.50;;;;;;3586420;40;20036;-68
2021/05/06 15:13:09;;;;;;;2.15;1.95;;;14.80;46.60;;;;;;3586888;40;20024;-67
2021/05/06 15:15:34;;;;;;;3.28;2.42;;;14.80;46.40;;;;;;3589217;40;20158;-67
2021/05/06 15:18:00;;;;;;;24.65;19.08;;;14.70;46.00;;;;;;3590886;40;20028;-67
2021/05/06 15:20:26;;;;;;;10.18;9.05;;;14.80;46.80;;;;;;3590155;40;20126;-68
2021/05/06 15:22:53;;;;;;;2.72;1.88;;;14.80;46.30;;;;;;3587846;40;20087;-68
2021/05/06 15:25:23;;;;;;;2.42;1.80;;;14.90;45.10;;;;;;3586356;40;20049;-68
2021/05/06 15:27:49;;;;;;;5.45;4.97;;;15.00;45.10;;;;;;3584979;40;20117;-68
2021/05/06 15:30:18;;;;;;;3.05;2.63;;;15.00;44.10;;;;;;3582784;39;20298;-69
2021/05/06 15:32:44;;;;;;;2.15;1.67;;;14.90;43.90;;;;;;3585337;40;20051;-65
2021/05/06 15:35:10;;;;;;;1.70;1.60;;;14.70;44.00;;;;;;3587016;39;20394;-65
2021/05/06 15:37:37;;;;;;;1.90;1.50;;;14.50;44.60;;;;;;3587120;39;20565;-69
2021/05/06 15:40:07;;;;;;;2.13;1.20;;;14.40;45.00;;;;;;3588845;40;20028;-69
2021/05/06 15:42:33;;;;;;;1.35;1.25;;;14.40;44.30;;;;;;3585619;40;20378;-69
2021/05/06 15:44:58;;;;;;;1.08;1.00;;;14.40;45.50;;;;;;3591171;40;20066;-67
2021/05/06 15:47:24;;;;;;;1.13;1.02;;;14.50;45.10;;;;;;3588889;40;20037;-67
2021/05/06 15:49:50;;;;;;;2.28;1.42;;;14.50;45.90;;;;;;3587255;39;20294;-67
2021/05/06 15:52:16;;;;;;;3.13;1.80;;;14.50;44.90;;;;;;3584477;40;20029;-67
2021/05/06 15:54:41;;;;;;;2.58;1.50;;;14.50;44.80;;;;;;3583023;40;20129;-67
2021/05/06 15:57:08;;;;;;;2.70;1.90;;;14.40;45.60;;;;;;3585867;40;20359;-67